sensor_id;sensor_type;location;lat;lon;timestamp;P1;durP1;ratioP1;P2;durP2;ratioP2
39994;SDS011;25686;51.908;10.418;2022-11-20T00:01:14;5.63;;;3.60;;
39994;SDS011;25686;51.908;10.418;2022-11-20T00:03:15;6.13;;;4.13;;
39994;SDS011;25686;51.908;10.418;2022-11-20T00:05:17;7.70;;;4.00;;
39994;SDS011;25686;51.908;10.418;2022-11-20T00:07:18;8.83;;;4.67;;
39994;SDS011;25686;51.908;10.418;2022-11-20T00:09:19;10.57;;;5.03;;
39994;SDS011;25686;51.908;10.418;2022-11-20T00:11:21;9.03;;;4.53;;
39994;SDS011;25686;51.908;10.418;2022-11-20T00:13:23;9.20;;;4.37;;
39994;SDS011;25686;51.908;10.418;2022-11-20T00:15:24;7.70;;;4.47;;
39994;SDS011;25686;51.908;10.418;2022-11-20T00:17:25;6.30;;;4.23;;
39994;SDS011;25686;51.908;10.418;2022-11-20T00:19:26;7.23;;;4.30;;
39994;SDS011;25686;51.908;10.418;2022-11-20T00:21:27;10.90;;;4.50;;
39994;SDS011;25686;51.908;10.418;2022-11-20T00:23:29;8.00;;;4.90;;
39994;SDS011;25686;51.908;10.418;2022-11-20T00:25:30;9.70;;;5.20;;
39994;SDS011;25686;51.908;10.418;2022-11-20T00:27:31;11.87;;;6.30;;
39994;SDS011;25686;51.908;10.418;2022-11-20T00:29:32;9.43;;;6.13;;
39994;SDS011;25686;51.908;10.418;2022-11-20T00:31:34;9.93;;;5.60;;
39994;SDS011;25686;51.908;10.418;2022-11-20T00:33:35;8.47;;;5.60;;
39994;SDS011;25686;51.908;10.418;2022-11-20T00:35:37;10.67;;;5.37;;
39994;SDS011;25686;51.908;10.418;2022-11-20T00:37:38;9.63;;;4.70;;
39994;SDS011;25686;51.908;10.418;2022-11-20T00:39:39;6.90;;;4.27;;
39994;SDS011;25686;51.908;10.418;2022-11-20T00:41:40;7.57;;;4.70;;
39994;SDS011;25686;51.908;10.418;2022-11-20T00:43:41;7.87;;;4.43;;
39994;SDS011;25686;51.908;10.418;2022-11-20T00:45:42;9.53;;;4.63;;
39994;SDS011;25686;51.908;10.418;2022-11-20T00:47:43;7.57;;;4.50;;
39994;SDS011;25686;51.908;10.418;2022-11-20T00:49:44;7.57;;;4.40;;
39994;SDS011;25686;51.908;10.418;2022-11-20T00:51:45;8.83;;;5.03;;
39994;SDS011;25686;51.908;10.418;2022-11-20T00:53:46;8.30;;;4.60;;
39994;SDS011;25686;51.908;10.418;2022-11-20T00:55:58;6.60;;;4.43;;
39994;SDS011;25686;51.908;10.418;2022-11-20T00:57:59;7.10;;;4.17;;
39994;SDS011;25686;51.908;10.418;2022-11-20T01:00:00;10.77;;;4.03;;
39994;SDS011;25686;51.908;10.418;2022-11-20T01:02:01;6.97;;;3.87;;
39994;SDS011;25686;51.908;10.418;2022-11-20T01:04:02;6.73;;;3.67;;
39994;SDS011;25686;51.908;10.418;2022-11-20T01:06:04;9.97;;;3.77;;
39994;SDS011;25686;51.908;10.418;2022-11-20T01:08:05;6.97;;;3.83;;
39994;SDS011;25686;51.908;10.418;2022-11-20T01:10:06;7.33;;;4.20;;
39994;SDS011;25686;51.908;10.418;2022-11-20T01:12:07;5.97;;;4.00;;
39994;SDS011;25686;51.908;10.418;2022-11-20T01:14:12;7.00;;;3.97;;
39994;SDS011;25686;51.908;10.418;2022-11-20T01:16:15;6.67;;;4.03;;
39994;SDS011;25686;51.908;10.418;2022-11-20T01:18:17;6.43;;;4.13;;
39994;SDS011;25686;51.908;10.418;2022-11-20T01:20:18;7.37;;;3.97;;
39994;SDS011;25686;51.908;10.418;2022-11-20T01:22:18;8.87;;;4.57;;
39994;SDS011;25686;51.908;10.418;2022-11-20T01:24:20;7.83;;;4.10;;
39994;SDS011;25686;51.908;10.418;2022-11-20T01:26:22;7.83;;;4.30;;
39994;SDS011;25686;51.908;10.418;2022-11-20T01:28:23;7.60;;;4.40;;
39994;SDS011;25686;51.908;10.418;2022-11-20T01:30:24;9.97;;;4.90;;
39994;SDS011;25686;51.908;10.418;2022-11-20T01:32:25;8.17;;;4.57;;
39994;SDS011;25686;51.908;10.418;2022-11-20T01:34:26;6.73;;;4.30;;
39994;SDS011;25686;51.908;10.418;2022-11-20T01:36:30;6.53;;;3.50;;
39994;SDS011;25686;51.908;10.418;2022-11-20T01:38:32;5.50;;;2.70;;
39994;SDS011;25686;51.908;10.418;2022-11-20T01:40:33;6.20;;;2.87;;
39994;SDS011;25686;51.908;10.418;2022-11-20T01:42:34;6.97;;;2.87;;
39994;SDS011;25686;51.908;10.418;2022-11-20T01:44:56;4.23;;;2.63;;
39994;SDS011;25686;51.908;10.418;2022-11-20T01:46:58;3.83;;;2.63;;
39994;SDS011;25686;51.908;10.418;2022-11-20T01:49:04;5.83;;;2.47;;
39994;SDS011;25686;51.908;10.418;2022-11-20T01:51:07;4.77;;;3.10;;
39994;SDS011;25686;51.908;10.418;2022-11-20T01:53:14;5.87;;;2.70;;
39994;SDS011;25686;51.908;10.418;2022-11-20T01:55:25;3.53;;;2.60;;
39994;SDS011;25686;51.908;10.418;2022-11-20T01:57:29;2.67;;;2.10;;
39994;SDS011;25686;51.908;10.418;2022-11-20T01:59:32;3.93;;;2.10;;
39994;SDS011;25686;51.908;10.418;2022-11-20T02:01:34;3.80;;;2.20;;
39994;SDS011;25686;51.908;10.418;2022-11-20T02:03:35;2.37;;;2.00;;
39994;SDS011;25686;51.908;10.418;2022-11-20T02:05:54;3.53;;;2.23;;
39994;SDS011;25686;51.908;10.418;2022-11-20T02:07:56;2.83;;;1.83;;
39994;SDS011;25686;51.908;10.418;2022-11-20T02:09:58;2.73;;;2.00;;
39994;SDS011;25686;51.908;10.418;2022-11-20T02:11:59;2.23;;;1.57;;
39994;SDS011;25686;51.908;10.418;2022-11-20T02:14:01;3.13;;;1.90;;
39994;SDS011;25686;51.908;10.418;2022-11-20T02:16:02;3.20;;;2.20;;
39994;SDS011;25686;51.908;10.418;2022-11-20T02:18:03;2.47;;;1.80;;
39994;SDS011;25686;51.908;10.418;2022-11-20T02:20:04;3.07;;;1.93;;
39994;SDS011;25686;51.908;10.418;2022-11-20T02:22:19;2.57;;;1.90;;
39994;SDS011;25686;51.908;10.418;2022-11-20T02:24:22;2.27;;;1.70;;
39994;SDS011;25686;51.908;10.418;2022-11-20T02:26:23;3.10;;;1.73;;
39994;SDS011;25686;51.908;10.418;2022-11-20T02:28:24;2.13;;;1.67;;
39994;SDS011;25686;51.908;10.418;2022-11-20T02:30:26;2.43;;;1.73;;
39994;SDS011;25686;51.908;10.418;2022-11-20T02:32:28;2.83;;;2.00;;
39994;SDS011;25686;51.908;10.418;2022-11-20T02:34:29;3.57;;;2.20;;
39994;SDS011;25686;51.908;10.418;2022-11-20T02:36:30;2.47;;;1.70;;
39994;SDS011;25686;51.908;10.418;2022-11-20T02:38:32;3.37;;;1.90;;
39994;SDS011;25686;51.908;10.418;2022-11-20T02:40:33;3.03;;;1.90;;
39994;SDS011;25686;51.908;10.418;2022-11-20T02:42:35;3.57;;;2.20;;
39994;SDS011;25686;51.908;10.418;2022-11-20T02:44:36;2.40;;;1.60;;
39994;SDS011;25686;51.908;10.418;2022-11-20T02:46:37;2.80;;;1.80;;
39994;SDS011;25686;51.908;10.418;2022-11-20T02:48:38;2.07;;;1.37;;
39994;SDS011;25686;51.908;10.418;2022-11-20T02:50:39;1.90;;;1.43;;
39994;SDS011;25686;51.908;10.418;2022-11-20T02:52:40;2.40;;;1.53;;
39994;SDS011;25686;51.908;10.418;2022-11-20T02:54:41;2.23;;;1.40;;
39994;SDS011;25686;51.908;10.418;2022-11-20T02:56:42;4.00;;;2.50;;
39994;SDS011;25686;51.908;10.418;2022-11-20T02:58:43;4.40;;;2.43;;
39994;SDS011;25686;51.908;10.418;2022-11-20T03:00:44;3.70;;;2.30;;
39994;SDS011;25686;51.908;10.418;2022-11-20T03:02:45;3.27;;;1.80;;
39994;SDS011;25686;51.908;10.418;2022-11-20T03:04:46;2.30;;;1.40;;
39994;SDS011;25686;51.908;10.418;2022-11-20T03:06:47;2.23;;;1.70;;
39994;SDS011;25686;51.908;10.418;2022-11-20T03:08:48;1.97;;;1.40;;
39994;SDS011;25686;51.908;10.418;2022-11-20T03:10:49;2.03;;;1.50;;
39994;SDS011;25686;51.908;10.418;2022-11-20T03:12:55;2.30;;;1.57;;
39994;SDS011;25686;51.908;10.418;2022-11-20T03:14:56;2.63;;;1.80;;
39994;SDS011;25686;51.908;10.418;2022-11-20T03:16:57;2.03;;;1.70;;
39994;SDS011;25686;51.908;10.418;2022-11-20T03:18:59;2.00;;;1.40;;
39994;SDS011;25686;51.908;10.418;2022-11-20T03:21:00;2.73;;;1.50;;
39994;SDS011;25686;51.908;10.418;2022-11-20T03:23:01;2.53;;;1.30;;
39994;SDS011;25686;51.908;10.418;2022-11-20T03:25:02;2.23;;;1.40;;
39994;SDS011;25686;51.908;10.418;2022-11-20T03:27:03;2.30;;;1.40;;
39994;SDS011;25686;51.908;10.418;2022-11-20T03:29:04;2.87;;;1.37;;
39994;SDS011;25686;51.908;10.418;2022-11-20T03:31:06;2.73;;;1.40;;
39994;SDS011;25686;51.908;10.418;2022-11-20T03:33:07;1.40;;;1.30;;
39994;SDS011;25686;51.908;10.418;2022-11-20T03:35:08;3.67;;;1.50;;
39994;SDS011;25686;51.908;10.418;2022-11-20T03:37:09;1.60;;;1.20;;
39994;SDS011;25686;51.908;10.418;2022-11-20T03:39:10;2.13;;;1.67;;
39994;SDS011;25686;51.908;10.418;2022-11-20T03:41:13;1.33;;;1.10;;
39994;SDS011;25686;51.908;10.418;2022-11-20T03:43:14;1.60;;;1.37;;
39994;SDS011;25686;51.908;10.418;2022-11-20T03:45:15;1.67;;;1.20;;
39994;SDS011;25686;51.908;10.418;2022-11-20T03:47:16;1.70;;;1.10;;
39994;SDS011;25686;51.908;10.418;2022-11-20T03:49:17;1.83;;;1.10;;
39994;SDS011;25686;51.908;10.418;2022-11-20T03:51:20;1.73;;;1.13;;
39994;SDS011;25686;51.908;10.418;2022-11-20T03:53:21;1.97;;;1.30;;
39994;SDS011;25686;51.908;10.418;2022-11-20T03:55:22;1.63;;;1.23;;
39994;SDS011;25686;51.908;10.418;2022-11-20T03:57:23;1.50;;;1.20;;
39994;SDS011;25686;51.908;10.418;2022-11-20T03:59:24;1.93;;;1.43;;
39994;SDS011;25686;51.908;10.418;2022-11-20T04:01:26;1.10;;;1.00;;
39994;SDS011;25686;51.908;10.418;2022-11-20T04:03:27;1.37;;;1.00;;
39994;SDS011;25686;51.908;10.418;2022-11-20T04:05:28;1.80;;;1.30;;
39994;SDS011;25686;51.908;10.418;2022-11-20T04:07:29;1.50;;;1.10;;
39994;SDS011;25686;51.908;10.418;2022-11-20T04:09:30;1.43;;;1.03;;
39994;SDS011;25686;51.908;10.418;2022-11-20T04:11:32;1.30;;;1.20;;
39994;SDS011;25686;51.908;10.418;2022-11-20T04:13:33;1.30;;;1.10;;
39994;SDS011;25686;51.908;10.418;2022-11-20T04:15:34;1.87;;;1.20;;
39994;SDS011;25686;51.908;10.418;2022-11-20T04:17:35;1.47;;;1.17;;
39994;SDS011;25686;51.908;10.418;2022-11-20T04:19:36;1.27;;;0.90;;
39994;SDS011;25686;51.908;10.418;2022-11-20T04:21:37;1.40;;;1.27;;
39994;SDS011;25686;51.908;10.418;2022-11-20T04:23:38;1.77;;;1.40;;
39994;SDS011;25686;51.908;10.418;2022-11-20T04:25:39;2.23;;;1.30;;
39994;SDS011;25686;51.908;10.418;2022-11-20T04:27:40;1.60;;;1.17;;
39994;SDS011;25686;51.908;10.418;2022-11-20T04:29:41;1.50;;;1.33;;
39994;SDS011;25686;51.908;10.418;2022-11-20T04:31:42;2.43;;;1.63;;
39994;SDS011;25686;51.908;10.418;2022-11-20T04:33:43;2.43;;;1.80;;
39994;SDS011;25686;51.908;10.418;2022-11-20T04:35:44;2.67;;;1.80;;
39994;SDS011;25686;51.908;10.418;2022-11-20T04:37:48;1.70;;;1.60;;
39994;SDS011;25686;51.908;10.418;2022-11-20T04:39:51;2.13;;;1.60;;
39994;SDS011;25686;51.908;10.418;2022-11-20T04:41:52;2.63;;;1.63;;
39994;SDS011;25686;51.908;10.418;2022-11-20T04:44:13;1.80;;;1.60;;
39994;SDS011;25686;51.908;10.418;2022-11-20T04:46:14;1.63;;;1.40;;
39994;SDS011;25686;51.908;10.418;2022-11-20T04:48:15;2.47;;;1.60;;
39994;SDS011;25686;51.908;10.418;2022-11-20T04:50:16;3.27;;;1.50;;
39994;SDS011;25686;51.908;10.418;2022-11-20T04:52:17;2.00;;;1.80;;
39994;SDS011;25686;51.908;10.418;2022-11-20T04:54:18;2.53;;;1.73;;
39994;SDS011;25686;51.908;10.418;2022-11-20T04:56:20;1.33;;;1.23;;
39994;SDS011;25686;51.908;10.418;2022-11-20T04:58:22;1.47;;;1.30;;
39994;SDS011;25686;51.908;10.418;2022-11-20T05:00:23;1.50;;;1.40;;
39994;SDS011;25686;51.908;10.418;2022-11-20T05:02:23;2.43;;;1.43;;
39994;SDS011;25686;51.908;10.418;2022-11-20T05:04:24;2.30;;;1.80;;
39994;SDS011;25686;51.908;10.418;2022-11-20T05:06:25;1.90;;;1.47;;
39994;SDS011;25686;51.908;10.418;2022-11-20T05:08:26;2.47;;;1.77;;
39994;SDS011;25686;51.908;10.418;2022-11-20T05:10:27;1.73;;;1.30;;
39994;SDS011;25686;51.908;10.418;2022-11-20T05:12:28;1.67;;;1.47;;
39994;SDS011;25686;51.908;10.418;2022-11-20T05:14:29;1.50;;;1.40;;
39994;SDS011;25686;51.908;10.418;2022-11-20T05:16:30;2.00;;;1.40;;
39994;SDS011;25686;51.908;10.418;2022-11-20T05:18:32;1.93;;;1.50;;
39994;SDS011;25686;51.908;10.418;2022-11-20T05:20:33;2.17;;;1.40;;
39994;SDS011;25686;51.908;10.418;2022-11-20T05:22:36;1.53;;;1.10;;
39994;SDS011;25686;51.908;10.418;2022-11-20T05:24:37;1.77;;;1.30;;
39994;SDS011;25686;51.908;10.418;2022-11-20T05:26:37;1.47;;;1.23;;
39994;SDS011;25686;51.908;10.418;2022-11-20T05:28:39;1.57;;;1.30;;
39994;SDS011;25686;51.908;10.418;2022-11-20T05:30:40;1.83;;;1.30;;
39994;SDS011;25686;51.908;10.418;2022-11-20T05:32:40;1.40;;;1.20;;
39994;SDS011;25686;51.908;10.418;2022-11-20T05:34:41;1.27;;;1.10;;
39994;SDS011;25686;51.908;10.418;2022-11-20T05:36:42;1.60;;;1.10;;
39994;SDS011;25686;51.908;10.418;2022-11-20T05:38:43;1.30;;;1.20;;
39994;SDS011;25686;51.908;10.418;2022-11-20T05:40:44;1.17;;;0.90;;
39994;SDS011;25686;51.908;10.418;2022-11-20T05:42:45;1.60;;;1.10;;
39994;SDS011;25686;51.908;10.418;2022-11-20T05:44:46;1.27;;;1.10;;
39994;SDS011;25686;51.908;10.418;2022-11-20T05:46:47;1.40;;;1.13;;
39994;SDS011;25686;51.908;10.418;2022-11-20T05:48:48;1.80;;;1.00;;
39994;SDS011;25686;51.908;10.418;2022-11-20T05:50:49;1.90;;;1.10;;
39994;SDS011;25686;51.908;10.418;2022-11-20T05:52:50;1.50;;;1.20;;
39994;SDS011;25686;51.908;10.418;2022-11-20T05:54:51;1.13;;;1.03;;
39994;SDS011;25686;51.908;10.418;2022-11-20T05:56:52;1.20;;;1.10;;
39994;SDS011;25686;51.908;10.418;2022-11-20T05:58:53;1.20;;;1.10;;
39994;SDS011;25686;51.908;10.418;2022-11-20T06:00:54;1.37;;;1.17;;
39994;SDS011;25686;51.908;10.418;2022-11-20T06:02:55;2.33;;;1.17;;
39994;SDS011;25686;51.908;10.418;2022-11-20T06:04:56;2.27;;;1.40;;
39994;SDS011;25686;51.908;10.418;2022-11-20T06:06:57;1.60;;;1.23;;
39994;SDS011;25686;51.908;10.418;2022-11-20T06:08:58;2.37;;;1.67;;
39994;SDS011;25686;51.908;10.418;2022-11-20T06:11:02;2.37;;;1.33;;
39994;SDS011;25686;51.908;10.418;2022-11-20T06:13:03;4.00;;;1.80;;
39994;SDS011;25686;51.908;10.418;2022-11-20T06:15:04;3.70;;;2.10;;
39994;SDS011;25686;51.908;10.418;2022-11-20T06:17:05;3.53;;;1.90;;
39994;SDS011;25686;51.908;10.418;2022-11-20T06:19:06;4.07;;;1.80;;
39994;SDS011;25686;51.908;10.418;2022-11-20T06:21:11;3.60;;;2.20;;
39994;SDS011;25686;51.908;10.418;2022-11-20T06:23:12;6.80;;;3.63;;
39994;SDS011;25686;51.908;10.418;2022-11-20T06:25:14;6.13;;;3.00;;
39994;SDS011;25686;51.908;10.418;2022-11-20T06:27:15;5.70;;;2.60;;
39994;SDS011;25686;51.908;10.418;2022-11-20T06:29:16;2.83;;;1.80;;
39994;SDS011;25686;51.908;10.418;2022-11-20T06:31:18;2.10;;;1.40;;
39994;SDS011;25686;51.908;10.418;2022-11-20T06:33:19;2.20;;;1.23;;
39994;SDS011;25686;51.908;10.418;2022-11-20T06:35:20;1.97;;;1.40;;
39994;SDS011;25686;51.908;10.418;2022-11-20T06:37:21;1.87;;;1.20;;
39994;SDS011;25686;51.908;10.418;2022-11-20T06:39:22;1.47;;;1.20;;
39994;SDS011;25686;51.908;10.418;2022-11-20T06:41:23;1.37;;;1.27;;
39994;SDS011;25686;51.908;10.418;2022-11-20T06:43:25;1.90;;;1.37;;
39994;SDS011;25686;51.908;10.418;2022-11-20T06:45:26;2.60;;;1.37;;
39994;SDS011;25686;51.908;10.418;2022-11-20T06:47:27;2.07;;;1.30;;
39994;SDS011;25686;51.908;10.418;2022-11-20T06:49:28;1.20;;;1.10;;
39994;SDS011;25686;51.908;10.418;2022-11-20T06:51:29;1.50;;;0.97;;
39994;SDS011;25686;51.908;10.418;2022-11-20T06:53:30;1.47;;;1.10;;
39994;SDS011;25686;51.908;10.418;2022-11-20T06:55:31;2.37;;;1.80;;
39994;SDS011;25686;51.908;10.418;2022-11-20T06:57:32;2.87;;;2.10;;
39994;SDS011;25686;51.908;10.418;2022-11-20T06:59:33;2.27;;;1.80;;
39994;SDS011;25686;51.908;10.418;2022-11-20T07:01:34;1.87;;;1.47;;
39994;SDS011;25686;51.908;10.418;2022-11-20T07:03:35;1.20;;;1.10;;
39994;SDS011;25686;51.908;10.418;2022-11-20T07:05:36;1.13;;;1.03;;
39994;SDS011;25686;51.908;10.418;2022-11-20T07:07:38;1.20;;;1.10;;
39994;SDS011;25686;51.908;10.418;2022-11-20T07:09:39;1.33;;;0.80;;
39994;SDS011;25686;51.908;10.418;2022-11-20T07:11:40;3.27;;;1.10;;
39994;SDS011;25686;51.908;10.418;2022-11-20T07:13:41;0.80;;;0.80;;
39994;SDS011;25686;51.908;10.418;2022-11-20T07:15:42;2.27;;;1.00;;
39994;SDS011;25686;51.908;10.418;2022-11-20T07:17:43;1.17;;;1.00;;
39994;SDS011;25686;51.908;10.418;2022-11-20T07:19:44;2.40;;;1.13;;
39994;SDS011;25686;51.908;10.418;2022-11-20T07:21:45;2.63;;;0.83;;
39994;SDS011;25686;51.908;10.418;2022-11-20T07:23:46;1.43;;;1.03;;
39994;SDS011;25686;51.908;10.418;2022-11-20T07:25:47;1.03;;;0.93;;
39994;SDS011;25686;51.908;10.418;2022-11-20T07:27:48;1.53;;;1.10;;
39994;SDS011;25686;51.908;10.418;2022-11-20T07:29:48;1.17;;;1.07;;
39994;SDS011;25686;51.908;10.418;2022-11-20T07:31:49;1.77;;;1.10;;
39994;SDS011;25686;51.908;10.418;2022-11-20T07:33:50;0.93;;;0.83;;
39994;SDS011;25686;51.908;10.418;2022-11-20T07:35:51;1.03;;;0.93;;
39994;SDS011;25686;51.908;10.418;2022-11-20T07:37:52;1.70;;;1.20;;
39994;SDS011;25686;51.908;10.418;2022-11-20T07:39:53;1.67;;;1.50;;
39994;SDS011;25686;51.908;10.418;2022-11-20T07:41:54;2.67;;;1.33;;
39994;SDS011;25686;51.908;10.418;2022-11-20T07:43:55;2.53;;;1.57;;
39994;SDS011;25686;51.908;10.418;2022-11-20T07:45:56;4.87;;;2.50;;
39994;SDS011;25686;51.908;10.418;2022-11-20T07:47:58;4.33;;;2.83;;
39994;SDS011;25686;51.908;10.418;2022-11-20T07:49:58;5.83;;;3.90;;
39994;SDS011;25686;51.908;10.418;2022-11-20T07:51:59;8.90;;;5.70;;
39994;SDS011;25686;51.908;10.418;2022-11-20T07:54:00;11.60;;;7.40;;
39994;SDS011;25686;51.908;10.418;2022-11-20T07:56:02;12.23;;;8.13;;
39994;SDS011;25686;51.908;10.418;2022-11-20T07:58:03;12.37;;;7.63;;
39994;SDS011;25686;51.908;10.418;2022-11-20T08:00:04;11.43;;;6.50;;
39994;SDS011;25686;51.908;10.418;2022-11-20T08:02:05;9.40;;;5.90;;
39994;SDS011;25686;51.908;10.418;2022-11-20T08:04:06;6.47;;;4.40;;
39994;SDS011;25686;51.908;10.418;2022-11-20T08:06:07;4.40;;;2.97;;
39994;SDS011;25686;51.908;10.418;2022-11-20T08:08:09;3.83;;;2.93;;
39994;SDS011;25686;51.908;10.418;2022-11-20T08:10:11;2.57;;;2.37;;
39994;SDS011;25686;51.908;10.418;2022-11-20T08:12:19;2.53;;;2.10;;
39994;SDS011;25686;51.908;10.418;2022-11-20T08:14:39;2.07;;;1.87;;
39994;SDS011;25686;51.908;10.418;2022-11-20T08:16:44;3.33;;;2.30;;
39994;SDS011;25686;51.908;10.418;2022-11-20T08:18:45;2.10;;;1.73;;
39994;SDS011;25686;51.908;10.418;2022-11-20T08:20:46;2.40;;;1.50;;
39994;SDS011;25686;51.908;10.418;2022-11-20T08:22:47;1.53;;;1.43;;
39994;SDS011;25686;51.908;10.418;2022-11-20T08:24:48;1.57;;;1.40;;
39994;SDS011;25686;51.908;10.418;2022-11-20T08:26:49;1.90;;;1.40;;
39994;SDS011;25686;51.908;10.418;2022-11-20T08:28:53;1.77;;;1.53;;
39994;SDS011;25686;51.908;10.418;2022-11-20T08:30:58;1.93;;;1.70;;
39994;SDS011;25686;51.908;10.418;2022-11-20T08:33:04;1.85;;;1.55;;
39994;SDS011;25686;51.908;10.418;2022-11-20T08:35:05;1.90;;;1.70;;
39994;SDS011;25686;51.908;10.418;2022-11-20T08:37:06;2.20;;;1.30;;
39994;SDS011;25686;51.908;10.418;2022-11-20T08:39:07;1.42;;;1.33;;
39994;SDS011;25686;51.908;10.418;2022-11-20T08:41:08;1.60;;;1.50;;
39994;SDS011;25686;51.908;10.418;2022-11-20T08:43:24;1.42;;;1.33;;
39994;SDS011;25686;51.908;10.418;2022-11-20T08:45:25;1.83;;;1.30;;
39994;SDS011;25686;51.908;10.418;2022-11-20T08:47:26;3.33;;;2.67;;
39994;SDS011;25686;51.908;10.418;2022-11-20T08:49:27;2.55;;;2.33;;
39994;SDS011;25686;51.908;10.418;2022-11-20T08:51:28;2.42;;;2.22;;
39994;SDS011;25686;51.908;10.418;2022-11-20T08:53:29;2.08;;;1.98;;
39994;SDS011;25686;51.908;10.418;2022-11-20T08:55:30;2.15;;;2.03;;
39994;SDS011;25686;51.908;10.418;2022-11-20T08:57:34;1.77;;;1.67;;
39994;SDS011;25686;51.908;10.418;2022-11-20T08:59:35;1.80;;;1.70;;
39994;SDS011;25686;51.908;10.418;2022-11-20T09:01:36;3.05;;;2.33;;
39994;SDS011;25686;51.908;10.418;2022-11-20T09:03:37;2.90;;;2.30;;
39994;SDS011;25686;51.908;10.418;2022-11-20T09:05:38;2.55;;;2.17;;
39994;SDS011;25686;51.908;10.418;2022-11-20T09:07:39;4.03;;;3.15;;
39994;SDS011;25686;51.908;10.418;2022-11-20T09:09:41;5.57;;;4.43;;
39994;SDS011;25686;51.908;10.418;2022-11-20T09:11:42;5.95;;;5.22;;
39994;SDS011;25686;51.908;10.418;2022-11-20T09:13:43;14.18;;;10.57;;
39994;SDS011;25686;51.908;10.418;2022-11-20T09:15:43;11.95;;;8.35;;
39994;SDS011;25686;51.908;10.418;2022-11-20T09:17:51;10.45;;;7.25;;
39994;SDS011;25686;51.908;10.418;2022-11-20T09:19:52;12.77;;;9.98;;
39994;SDS011;25686;51.908;10.418;2022-11-20T09:21:53;12.05;;;10.38;;
39994;SDS011;25686;51.908;10.418;2022-11-20T09:23:54;10.27;;;9.20;;
39994;SDS011;25686;51.908;10.418;2022-11-20T09:25:55;8.65;;;7.82;;
39994;SDS011;25686;51.908;10.418;2022-11-20T09:27:59;7.95;;;7.22;;
39994;SDS011;25686;51.908;10.418;2022-11-20T09:30:00;7.70;;;7.00;;
39994;SDS011;25686;51.908;10.418;2022-11-20T09:32:01;7.43;;;6.72;;
39994;SDS011;25686;51.908;10.418;2022-11-20T09:34:02;4.68;;;4.28;;
39994;SDS011;25686;51.908;10.418;2022-11-20T09:36:03;4.60;;;4.20;;
39994;SDS011;25686;51.908;10.418;2022-11-20T09:38:05;4.82;;;4.40;;
39994;SDS011;25686;51.908;10.418;2022-11-20T09:40:06;4.50;;;3.75;;
39994;SDS011;25686;51.908;10.418;2022-11-20T09:44:34;4.63;;;4.22;;
39994;SDS011;25686;51.908;10.418;2022-11-20T09:53:24;8.27;;;5.50;;
39994;SDS011;25686;51.908;10.418;2022-11-20T09:55:28;7.70;;;6.13;;
39994;SDS011;25686;51.908;10.418;2022-11-20T09:57:40;8.35;;;6.63;;
39994;SDS011;25686;51.908;10.418;2022-11-20T09:59:53;11.00;;;7.90;;
39994;SDS011;25686;51.908;10.418;2022-11-20T10:01:55;15.43;;;8.18;;
39994;SDS011;25686;51.908;10.418;2022-11-20T10:04:31;8.93;;;5.97;;
39994;SDS011;25686;51.908;10.418;2022-11-20T10:06:28;8.23;;;5.85;;
39994;SDS011;25686;51.908;10.418;2022-11-20T10:08:36;8.27;;;6.20;;
39994;SDS011;25686;51.908;10.418;2022-11-20T10:10:54;8.70;;;5.78;;
39994;SDS011;25686;51.908;10.418;2022-11-20T10:17:15;8.95;;;6.38;;
39994;SDS011;25686;51.908;10.418;2022-11-20T10:19:30;9.75;;;6.55;;
39994;SDS011;25686;51.908;10.418;2022-11-20T10:26:03;9.77;;;6.10;;
39994;SDS011;25686;51.908;10.418;2022-11-20T10:30:20;12.05;;;5.95;;
39994;SDS011;25686;51.908;10.418;2022-11-20T10:32:26;9.80;;;6.25;;
39994;SDS011;25686;51.908;10.418;2022-11-20T10:34:35;8.85;;;5.93;;
39994;SDS011;25686;51.908;10.418;2022-11-20T10:36:55;12.70;;;6.17;;
39994;SDS011;25686;51.908;10.418;2022-11-20T10:38:58;6.77;;;4.37;;
39994;SDS011;25686;51.908;10.418;2022-11-20T10:41:01;2.80;;;2.00;;
39994;SDS011;25686;51.908;10.418;2022-11-20T10:43:24;2.40;;;1.90;;
39994;SDS011;25686;51.908;10.418;2022-11-20T10:45:32;2.90;;;2.17;;
39994;SDS011;25686;51.908;10.418;2022-11-20T10:47:35;2.63;;;1.87;;
39994;SDS011;25686;51.908;10.418;2022-11-20T10:49:36;3.23;;;2.20;;
39994;SDS011;25686;51.908;10.418;2022-11-20T10:51:39;3.47;;;2.23;;
39994;SDS011;25686;51.908;10.418;2022-11-20T10:56:10;2.93;;;2.13;;
39994;SDS011;25686;51.908;10.418;2022-11-20T10:58:14;3.23;;;2.07;;
39994;SDS011;25686;51.908;10.418;2022-11-20T11:00:17;3.57;;;2.10;;
39994;SDS011;25686;51.908;10.418;2022-11-20T11:02:22;3.37;;;2.33;;
39994;SDS011;25686;51.908;10.418;2022-11-20T11:06:37;2.10;;;1.90;;
39994;SDS011;25686;51.908;10.418;2022-11-20T11:08:38;3.33;;;2.13;;
39994;SDS011;25686;51.908;10.418;2022-11-20T11:10:47;3.60;;;2.37;;
39994;SDS011;25686;51.908;10.418;2022-11-20T11:12:51;2.80;;;2.27;;
39994;SDS011;25686;51.908;10.418;2022-11-20T11:14:53;3.33;;;2.00;;
39994;SDS011;25686;51.908;10.418;2022-11-20T11:16:55;2.70;;;1.57;;
39994;SDS011;25686;51.908;10.418;2022-11-20T11:19:06;2.53;;;1.80;;
39994;SDS011;25686;51.908;10.418;2022-11-20T11:21:08;2.33;;;1.50;;
39994;SDS011;25686;51.908;10.418;2022-11-20T11:23:22;1.43;;;1.17;;
39994;SDS011;25686;51.908;10.418;2022-11-20T11:25:28;2.30;;;1.60;;
39994;SDS011;25686;51.908;10.418;2022-11-20T11:27:29;2.97;;;1.70;;
39994;SDS011;25686;51.908;10.418;2022-11-20T11:29:30;3.57;;;1.70;;
39994;SDS011;25686;51.908;10.418;2022-11-20T11:31:32;2.70;;;1.57;;
39994;SDS011;25686;51.908;10.418;2022-11-20T11:33:35;2.37;;;1.40;;
39994;SDS011;25686;51.908;10.418;2022-11-20T11:35:44;1.83;;;1.23;;
39994;SDS011;25686;51.908;10.418;2022-11-20T11:37:45;3.50;;;2.07;;
39994;SDS011;25686;51.908;10.418;2022-11-20T11:39:48;2.63;;;1.80;;
39994;SDS011;25686;51.908;10.418;2022-11-20T11:41:49;2.93;;;2.30;;
39994;SDS011;25686;51.908;10.418;2022-11-20T11:44:00;2.80;;;2.10;;
39994;SDS011;25686;51.908;10.418;2022-11-20T11:48:25;3.63;;;1.43;;
39994;SDS011;25686;51.908;10.418;2022-11-20T11:50:27;3.10;;;1.73;;
39994;SDS011;25686;51.908;10.418;2022-11-20T11:52:29;2.20;;;1.37;;
39994;SDS011;25686;51.908;10.418;2022-11-20T11:54:37;3.47;;;1.50;;
39994;SDS011;25686;51.908;10.418;2022-11-20T11:56:39;2.03;;;1.60;;
39994;SDS011;25686;51.908;10.418;2022-11-20T11:58:44;1.73;;;1.40;;
39994;SDS011;25686;51.908;10.418;2022-11-20T12:00:51;2.30;;;1.70;;
39994;SDS011;25686;51.908;10.418;2022-11-20T12:05:00;3.07;;;1.80;;
39994;SDS011;25686;51.908;10.418;2022-11-20T12:07:06;2.20;;;1.60;;
39994;SDS011;25686;51.908;10.418;2022-11-20T12:09:11;2.40;;;1.83;;
39994;SDS011;25686;51.908;10.418;2022-11-20T12:11:15;3.13;;;1.93;;
39994;SDS011;25686;51.908;10.418;2022-11-20T12:13:20;5.73;;;2.30;;
39994;SDS011;25686;51.908;10.418;2022-11-20T12:15:25;2.43;;;1.73;;
39994;SDS011;25686;51.908;10.418;2022-11-20T12:17:27;2.10;;;1.40;;
39994;SDS011;25686;51.908;10.418;2022-11-20T12:19:29;3.57;;;1.70;;
39994;SDS011;25686;51.908;10.418;2022-11-20T12:21:36;2.43;;;1.93;;
39994;SDS011;25686;51.908;10.418;2022-11-20T12:25:42;2.17;;;1.73;;
39994;SDS011;25686;51.908;10.418;2022-11-20T12:29:51;2.70;;;1.60;;
39994;SDS011;25686;51.908;10.418;2022-11-20T12:36:33;2.00;;;1.40;;
39994;SDS011;25686;51.908;10.418;2022-11-20T12:49:41;4.57;;;1.43;;
39994;SDS011;25686;51.908;10.418;2022-11-20T12:56:04;3.47;;;1.90;;
39994;SDS011;25686;51.908;10.418;2022-11-20T13:00:12;3.07;;;1.90;;
39994;SDS011;25686;51.908;10.418;2022-11-20T13:04:39;2.40;;;1.63;;